Time;durP1;ratioP1;P1;durP2;ratioP2;P2;SDS_P1;SDS_P2;PMS_P1;PMS_P2;Temp;Humidity;BMP_temperature;BMP_pressure;BME280_temperature;BME280_humidity;BME280_pressure;Samples;Min_cycle;Max_cycle;Signal;HPM_P1;HPM_P2
2022/04/15 00:01:54;;;;;;;25.00;12.27;;;14.30;62.00;;;;;;4965656;28;20216;-80
2022/04/15 00:04:50;;;;;;;32.57;14.57;;;14.20;62.20;;;;;;4966296;28;20200;-81
2022/04/15 00:07:19;;;;;;;27.90;13.43;;;14.20;62.40;;;;;;4963845;28;21649;-83
2022/04/15 00:09:48;;;;;;;24.63;13.63;;;14.20;62.50;;;;;;4961299;28;20216;-82
2022/04/15 00:12:27;;;;;;;25.97;13.80;;;14.20;62.70;;;;;;4960236;28;20201;-85
2022/04/15 00:14:56;;;;;;;31.43;13.97;;;14.20;62.90;;;;;;4965294;28;20205;-84
2022/04/15 00:17:25;;;;;;;30.50;13.67;;;14.10;62.80;;;;;;4965405;28;20201;-82
2022/04/15 00:19:53;;;;;;;21.93;12.53;;;14.10;63.00;;;;;;4964838;28;20196;-83
2022/04/15 00:22:22;;;;;;;22.17;12.53;;;14.10;63.10;;;;;;4964175;28;20290;-84
2022/04/15 00:24:50;;;;;;;25.10;13.53;;;14.10;63.30;;;;;;4965431;28;20205;-84
2022/04/15 00:27:20;;;;;;;24.10;13.00;;;14.10;63.40;;;;;;4965691;28;20227;-84
2022/04/15 00:29:48;;;;;;;27.30;12.43;;;14.00;63.50;;;;;;4968523;28;20724;-84
2022/04/15 00:32:17;;;;;;;30.20;12.67;;;14.00;63.50;;;;;;4967985;28;20689;-84
2022/04/15 00:34:45;;;;;;;20.03;12.53;;;14.00;63.50;;;;;;4970073;28;20225;-84
2022/04/15 00:37:14;;;;;;;24.60;12.23;;;14.00;63.50;;;;;;4968830;28;20210;-83
2022/04/15 00:39:45;;;;;;;25.17;12.93;;;14.00;63.90;;;;;;4964998;28;20276;-84
2022/04/15 00:42:14;;;;;;;32.53;13.80;;;14.00;63.90;;;;;;4964844;28;20295;-84
2022/04/15 00:44:44;;;;;;;26.37;12.90;;;14.00;63.80;;;;;;4968917;28;20940;-83
2022/04/15 00:47:20;;;;;;;24.93;12.70;;;13.90;64.20;;;;;;4967958;28;20201;-82
2022/04/15 00:49:48;;;;;;;22.97;12.83;;;13.90;64.20;;;;;;4969398;28;20296;-81
2022/04/15 00:52:21;;;;;;;25.53;12.37;;;13.90;64.20;;;;;;4967429;28;20217;-81
2022/04/15 00:54:52;;;;;;;23.27;11.97;;;13.90;64.20;;;;;;4967162;28;20811;-82
2022/04/15 00:57:25;;;;;;;31.67;12.83;;;13.80;64.50;;;;;;4968733;28;20206;-85
2022/04/15 00:59:58;;;;;;;25.17;12.03;;;13.80;64.40;;;;;;4969895;28;20194;-81
2022/04/15 01:02:29;;;;;;;21.97;11.97;;;13.80;64.50;;;;;;4967784;28;20210;-80
2022/04/15 01:04:58;;;;;;;21.50;11.80;;;13.80;64.50;;;;;;4966685;28;20248;-79
2022/04/15 01:07:27;;;;;;;22.40;11.53;;;13.80;64.50;;;;;;4968304;28;20207;-79
2022/04/15 01:09:56;;;;;;;27.37;12.10;;;13.70;64.50;;;;;;4966095;28;20198;-80
2022/04/15 01:12:29;;;;;;;21.07;11.67;;;13.70;64.50;;;;;;4965448;28;20197;-80
2022/04/15 01:15:00;;;;;;;24.73;13.30;;;13.70;64.80;;;;;;4965950;28;20194;-80
2022/04/15 01:17:29;;;;;;;24.40;11.83;;;13.70;64.80;;;;;;4970028;28;20208;-81
2022/04/15 01:19:58;;;;;;;22.00;13.03;;;13.60;64.80;;;;;;4970326;28;20205;-81
2022/04/15 01:22:32;;;;;;;20.70;12.40;;;13.60;64.80;;;;;;4969797;28;20679;-81
2022/04/15 01:25:03;;;;;;;32.73;13.03;;;13.60;65.00;;;;;;4968681;28;20641;-80
2022/04/15 01:27:35;;;;;;;21.77;12.83;;;13.60;65.00;;;;;;4968214;28;20200;-81
2022/04/15 01:30:04;;;;;;;25.53;13.13;;;13.50;65.00;;;;;;4968617;28;20236;-81
2022/04/15 01:32:32;;;;;;;26.37;12.07;;;13.50;65.10;;;;;;4968668;28;20579;-81
2022/04/15 01:35:00;;;;;;;22.67;12.60;;;13.50;65.10;;;;;;4968158;28;20539;-81
2022/04/15 01:37:31;;;;;;;24.50;12.37;;;13.50;65.10;;;;;;4968511;28;20619;-80
2022/04/15 01:40:00;;;;;;;23.37;13.33;;;13.40;65.20;;;;;;4966051;28;20203;-81
2022/04/15 01:42:30;;;;;;;24.80;13.87;;;13.40;65.30;;;;;;4964804;28;20221;-78
2022/04/15 01:44:58;;;;;;;21.30;12.80;;;13.40;65.40;;;;;;4962952;28;20718;-82
2022/04/15 01:47:27;;;;;;;23.60;13.67;;;13.40;65.40;;;;;;4966629;28;20206;-82
2022/04/15 01:49:55;;;;;;;21.00;12.57;;;13.40;65.60;;;;;;4966950;28;20202;-83
2022/04/15 01:52:24;;;;;;;23.97;12.60;;;13.40;65.70;;;;;;4967854;28;20202;-81
2022/04/15 01:54:56;;;;;;;21.47;12.07;;;13.30;65.70;;;;;;4967339;28;20209;-82
2022/04/15 01:57:24;;;;;;;20.67;12.37;;;13.30;65.70;;;;;;4967979;28;20208;-83
2022/04/15 01:59:54;;;;;;;24.97;12.70;;;13.30;65.70;;;;;;4967489;28;20263;-80
2022/04/15 02:02:23;;;;;;;20.37;12.00;;;13.30;65.80;;;;;;4967244;28;20209;-82
2022/04/15 02:04:52;;;;;;;18.73;11.47;;;13.30;65.80;;;;;;4968478;28;20197;-82
2022/04/15 02:07:21;;;;;;;19.70;11.50;;;13.20;65.80;;;;;;4968414;28;21789;-82
2022/04/15 02:09:49;;;;;;;19.30;11.47;;;13.20;65.70;;;;;;4967991;28;20297;-82
2022/04/15 02:12:18;;;;;;;24.57;12.20;;;13.20;65.80;;;;;;4967075;28;20215;-79
2022/04/15 02:14:47;;;;;;;21.90;11.83;;;13.20;65.80;;;;;;4966508;28;20201;-79
2022/04/15 02:17:17;;;;;;;27.50;12.87;;;13.20;65.90;;;;;;4968312;28;20213;-79
2022/04/15 02:19:45;;;;;;;20.13;12.20;;;13.20;66.10;;;;;;4965876;28;20212;-79
2022/04/15 02:22:13;;;;;;;21.53;13.17;;;13.10;66.00;;;;;;4967527;28;20213;-78
2022/04/15 02:24:42;;;;;;;25.83;11.97;;;13.10;66.10;;;;;;4968149;28;20210;-78
2022/04/15 02:27:10;;;;;;;19.00;12.13;;;13.10;66.20;;;;;;4966459;28;20205;-78
2022/04/15 02:29:38;;;;;;;22.13;13.23;;;13.10;66.20;;;;;;4966464;28;20225;-79
2022/04/15 02:32:08;;;;;;;22.40;12.70;;;13.10;66.30;;;;;;4966249;28;20644;-79
2022/04/15 02:34:38;;;;;;;20.37;12.27;;;13.00;66.30;;;;;;4967392;28;20208;-78
2022/04/15 02:37:06;;;;;;;27.03;12.17;;;13.00;66.50;;;;;;4966174;28;20204;-79
2022/04/15 02:39:35;;;;;;;22.90;12.10;;;13.00;66.50;;;;;;4964736;28;20260;-79
2022/04/15 02:42:03;;;;;;;26.07;12.47;;;13.00;66.50;;;;;;4966746;28;20256;-79
2022/04/15 02:44:32;;;;;;;20.87;12.47;;;12.90;66.50;;;;;;4965934;28;20211;-81
2022/04/15 02:47:00;;;;;;;23.93;12.50;;;13.00;66.60;;;;;;4966453;28;20204;-80
2022/04/15 02:49:29;;;;;;;23.90;12.33;;;12.90;66.60;;;;;;4967024;28;20232;-79
2022/04/15 02:51:58;;;;;;;24.03;11.50;;;12.90;66.70;;;;;;4966180;28;20197;-82
2022/04/15 02:54:27;;;;;;;26.67;12.53;;;12.80;66.80;;;;;;4965235;28;20210;-81
2022/04/15 02:56:55;;;;;;;19.10;11.00;;;12.80;66.90;;;;;;4968066;28;20206;-78
2022/04/15 02:59:24;;;;;;;21.80;12.57;;;12.80;66.90;;;;;;4966159;28;20888;-79
2022/04/15 03:01:52;;;;;;;21.53;12.00;;;12.80;67.10;;;;;;4962954;28;20853;-78
2022/04/15 03:04:20;;;;;;;24.40;12.30;;;12.70;67.20;;;;;;4964988;28;20221;-78
2022/04/15 03:06:49;;;;;;;25.77;12.33;;;12.70;67.40;;;;;;4966193;28;20193;-79
2022/04/15 03:09:21;;;;;;;21.43;12.33;;;12.70;67.40;;;;;;4965637;28;20193;-82
2022/04/15 03:11:50;;;;;;;22.30;12.40;;;12.60;67.40;;;;;;4968495;28;20289;-82
2022/04/15 03:14:18;;;;;;;29.07;13.20;;;12.60;67.40;;;;;;4966507;28;20691;-83
2022/04/15 03:16:46;;;;;;;21.20;11.43;;;12.60;67.60;;;;;;4968590;28;20205;-79
2022/04/15 03:19:15;;;;;;;27.20;12.00;;;12.60;68.00;;;;;;4967364;28;20204;-80
2022/04/15 03:21:43;;;;;;;25.77;12.00;;;12.50;68.20;;;;;;4967221;28;20703;-78
2022/04/15 03:24:12;;;;;;;19.20;12.27;;;12.50;68.20;;;;;;4966046;28;20229;-79
2022/04/15 03:26:42;;;;;;;22.57;11.90;;;12.50;68.20;;;;;;4966907;28;20198;-80
2022/04/15 03:29:12;;;;;;;21.20;11.67;;;12.40;68.30;;;;;;4965209;28;20875;-79
2022/04/15 03:31:41;;;;;;;20.40;11.00;;;12.40;68.40;;;;;;4965278;28;20197;-78
2022/04/15 03:34:15;;;;;;;21.70;11.80;;;12.40;68.60;;;;;;4964587;28;20201;-79
2022/04/15 03:36:45;;;;;;;21.70;12.20;;;12.40;68.60;;;;;;4965745;28;20231;-81
2022/04/15 03:39:13;;;;;;;19.00;11.33;;;12.40;68.60;;;;;;4966422;28;20271;-82
2022/04/15 03:41:43;;;;;;;30.13;12.07;;;12.30;68.60;;;;;;4966533;28;20209;-80
2022/04/15 03:44:12;;;;;;;20.10;10.97;;;12.30;68.60;;;;;;4963726;28;20943;-81
2022/04/15 03:46:40;;;;;;;19.27;11.10;;;12.30;68.80;;;;;;4963202;28;20765;-81
2022/04/15 03:49:08;;;;;;;22.53;10.83;;;12.30;68.80;;;;;;4964892;28;20205;-81
2022/04/15 03:51:38;;;;;;;22.23;10.97;;;12.30;68.80;;;;;;4967213;28;20209;-81
2022/04/15 03:54:08;;;;;;;24.70;11.10;;;12.20;68.70;;;;;;4965886;28;20671;-80
2022/04/15 03:56:37;;;;;;;20.23;10.47;;;12.30;68.80;;;;;;4966987;28;20566;-80
2022/04/15 03:59:08;;;;;;;20.53;10.90;;;12.20;69.50;;;;;;4966209;28;20240;-86
2022/04/15 04:01:36;;;;;;;20.73;10.10;;;12.20;68.80;;;;;;4963893;28;20198;-84
2022/04/15 04:04:05;;;;;;;19.60;10.83;;;12.30;68.80;;;;;;4961548;28;20224;-82
2022/04/15 04:06:34;;;;;;;20.70;11.07;;;12.30;68.90;;;;;;4964575;28;20543;-79
2022/04/15 04:09:02;;;;;;;17.27;9.97;;;12.30;69.10;;;;;;4964539;28;20209;-82
2022/04/15 04:11:35;;;;;;;21.70;10.40;;;12.20;69.10;;;;;;4964550;28;20197;-81
2022/04/15 04:14:06;;;;;;;18.73;10.07;;;12.30;69.20;;;;;;4967067;28;20280;-79
2022/04/15 04:16:42;;;;;;;16.03;9.03;;;12.30;69.20;;;;;;4964514;28;20308;-84
2022/04/15 04:19:11;;;;;;;18.67;9.73;;;12.30;69.20;;;;;;4964023;28;20697;-79
2022/04/15 04:21:39;;;;;;;18.03;9.63;;;12.30;69.90;;;;;;4963935;28;20294;-80
2022/04/15 04:24:10;;;;;;;17.90;9.33;;;12.40;69.00;;;;;;4964066;28;20221;-80
2022/04/15 04:26:38;;;;;;;24.93;9.33;;;12.40;68.90;;;;;;4966506;28;20201;-80
2022/04/15 04:29:08;;;;;;;22.10;9.07;;;12.50;68.80;;;;;;4962322;28;20812;-82
2022/04/15 04:31:39;;;;;;;16.37;8.60;;;12.50;68.80;;;;;;4964118;28;20574;-83
2022/04/15 04:34:08;;;;;;;21.43;9.07;;;12.50;68.60;;;;;;4962178;28;20197;-81
2022/04/15 04:36:36;;;;;;;18.13;9.43;;;12.60;68.70;;;;;;4961431;28;20202;-81
2022/04/15 04:39:09;;;;;;;17.90;9.43;;;12.60;68.80;;;;;;4965106;28;20715;-80
2022/04/15 04:41:40;;;;;;;19.50;9.00;;;12.70;69.10;;;;;;4964770;28;20197;-80
2022/04/15 04:44:10;;;;;;;14.53;8.57;;;12.70;69.10;;;;;;4964063;28;20209;-80
2022/04/15 04:46:38;;;;;;;16.13;9.03;;;12.70;69.00;;;;;;4964054;28;22361;-80
2022/04/15 04:49:07;;;;;;;20.00;9.17;;;12.80;69.10;;;;;;4964862;28;20717;-81
2022/04/15 04:51:35;;;;;;;16.80;9.03;;;12.80;68.80;;;;;;4965612;28;20244;-81
2022/04/15 04:54:04;;;;;;;17.07;8.47;;;12.90;68.70;;;;;;4964972;28;20189;-80
2022/04/15 04:56:32;;;;;;;15.60;9.03;;;12.90;68.50;;;;;;4963304;28;20892;-82
2022/04/15 04:59:01;;;;;;;19.40;8.10;;;13.00;68.40;;;;;;4965537;28;20229;-79
2022/04/15 05:01:30;;;;;;;15.87;8.77;;;13.00;68.10;;;;;;4964732;28;20190;-82
2022/04/15 05:03:59;;;;;;;16.63;8.60;;;13.10;68.00;;;;;;4961373;28;20249;-81
2022/04/15 05:06:28;;;;;;;16.13;9.30;;;13.10;67.80;;;;;;4962995;28;20260;-80
2022/04/15 05:08:56;;;;;;;18.60;8.70;;;13.20;67.60;;;;;;4964017;28;20204;-81
2022/04/15 05:11:25;;;;;;;14.97;9.00;;;13.20;67.50;;;;;;4966338;28;20577;-81
2022/04/15 05:13:53;;;;;;;15.60;8.37;;;13.30;67.50;;;;;;4963529;28;20206;-80
2022/04/15 05:16:21;;;;;;;19.43;8.13;;;13.30;67.40;;;;;;4967232;28;20565;-82
2022/04/15 05:18:51;;;;;;;16.27;9.13;;;13.40;67.20;;;;;;4969900;28;20208;-81
2022/04/15 05:21:20;;;;;;;14.90;9.53;;;13.40;67.20;;;;;;4967879;28;20240;-80
2022/04/15 05:23:48;;;;;;;23.57;9.00;;;13.50;67.10;;;;;;4968769;28;20221;-82
2022/04/15 05:26:17;;;;;;;21.97;9.87;;;13.60;67.10;;;;;;4966048;28;20201;-80
2022/04/15 05:28:45;;;;;;;18.83;9.60;;;13.70;66.90;;;;;;4968043;28;20210;-81
2022/04/15 05:31:13;;;;;;;20.10;9.43;;;13.70;66.50;;;;;;4965506;28;20894;-82
2022/04/15 05:33:42;;;;;;;19.20;9.33;;;13.80;66.40;;;;;;4964975;28;20205;-81
2022/04/15 05:36:12;;;;;;;16.70;9.13;;;13.90;66.30;;;;;;4963340;28;20213;-83
2022/04/15 05:38:40;;;;;;;20.40;10.20;;;14.00;66.30;;;;;;4967633;28;20212;-81
2022/04/15 05:41:12;;;;;;;17.80;9.57;;;14.00;66.00;;;;;;4968037;28;20206;-82
2022/04/15 05:43:42;;;;;;;15.07;8.57;;;14.10;66.00;;;;;;4966496;28;20201;-84
2022/04/15 05:46:11;;;;;;;17.73;8.43;;;14.30;65.70;;;;;;4968575;28;20656;-81
2022/04/15 05:48:40;;;;;;;17.83;7.83;;;14.30;65.20;;;;;;4968369;28;20774;-80
2022/04/15 05:51:13;;;;;;;13.97;7.93;;;14.40;65.20;;;;;;4966220;28;20209;-81
2022/04/15 05:53:41;;;;;;;17.13;9.07;;;14.50;65.10;;;;;;4966603;28;20204;-82
2022/04/15 05:56:10;;;;;;;17.07;8.57;;;14.60;65.00;;;;;;4967565;28;20907;-83
2022/04/15 05:58:40;;;;;;;15.53;8.50;;;14.60;64.70;;;;;;4966666;28;21245;-80
2022/04/15 06:01:10;;;;;;;15.93;8.40;;;14.70;64.60;;;;;;4966197;28;20197;-79
2022/04/15 06:03:39;;;;;;;16.53;9.40;;;14.80;64.50;;;;;;4966406;28;20197;-81
2022/04/15 06:06:07;;;;;;;18.70;8.37;;;14.90;64.40;;;;;;4967949;28;20205;-82
2022/04/15 06:08:37;;;;;;;13.77;7.97;;;15.00;64.30;;;;;;4966299;28;20743;-83
2022/04/15 06:11:05;;;;;;;15.07;7.37;;;15.10;64.30;;;;;;4966356;28;20886;-80
2022/04/15 06:13:34;;;;;;;15.17;7.57;;;15.20;64.10;;;;;;4968212;28;21144;-84
2022/04/15 06:16:05;;;;;;;18.07;8.27;;;15.30;63.80;;;;;;4968256;28;20208;-85
2022/04/15 06:18:36;;;;;;;16.67;8.80;;;15.40;63.70;;;;;;4967763;28;20205;-83
2022/04/15 06:21:05;;;;;;;19.43;9.10;;;15.60;63.70;;;;;;4967410;28;20939;-81
2022/04/15 06:23:33;;;;;;;15.20;8.30;;;15.60;63.50;;;;;;4966686;28;20729;-82
2022/04/15 06:26:03;;;;;;;18.47;8.53;;;15.80;63.30;;;;;;4968000;28;20218;-81
2022/04/15 06:28:32;;;;;;;15.10;7.47;;;15.80;63.00;;;;;;4965215;28;20229;-81
2022/04/15 06:31:01;;;;;;;18.33;8.37;;;16.00;63.00;;;;;;4967571;28;20335;-82
2022/04/15 06:33:29;;;;;;;18.00;7.40;;;16.00;62.80;;;;;;4968940;28;20208;-84
2022/04/15 06:35:59;;;;;;;20.13;9.07;;;16.10;62.70;;;;;;4965096;28;20446;-83
2022/04/15 06:38:28;;;;;;;15.27;7.50;;;16.20;61.70;;;;;;4966734;28;20199;-81
2022/04/15 06:40:56;;;;;;;22.00;8.00;;;16.30;61.50;;;;;;4969357;28;20202;-81
2022/04/15 06:43:26;;;;;;;13.30;6.63;;;16.40;61.30;;;;;;4968169;28;20201;-82
2022/04/15 06:45:56;;;;;;;15.87;7.93;;;16.50;61.10;;;;;;4968102;28;20212;-82
2022/04/15 06:48:25;;;;;;;27.20;9.83;;;16.60;60.70;;;;;;4967117;28;20197;-82
2022/04/15 06:50:54;;;;;;;19.30;9.07;;;16.70;60.20;;;;;;4966031;28;20202;-83
2022/04/15 06:53:23;;;;;;;25.93;8.73;;;16.80;60.00;;;;;;4968964;28;20206;-79
2022/04/15 06:55:52;;;;;;;16.07;7.43;;;16.90;59.90;;;;;;4967365;28;20204;-81
2022/04/15 06:58:20;;;;;;;15.77;7.67;;;17.10;59.80;;;;;;4969224;28;20201;-78
2022/04/15 07:00:52;;;;;;;12.53;6.13;;;17.20;59.60;;;;;;4968747;28;20209;-79
2022/04/15 07:03:20;;;;;;;20.27;6.83;;;17.30;58.90;;;;;;4968458;28;20194;-80
2022/04/15 07:05:49;;;;;;;24.43;10.00;;;17.40;58.60;;;;;;4968412;28;20320;-81
2022/04/15 07:08:17;;;;;;;21.90;8.60;;;17.60;58.40;;;;;;4967346;28;20569;-78
2022/04/15 07:10:45;;;;;;;27.90;7.77;;;17.60;58.20;;;;;;4967744;28;20585;-80
2022/04/15 07:13:14;;;;;;;22.53;8.83;;;17.80;58.20;;;;;;4967795;28;20726;-83
2022/04/15 07:15:42;;;;;;;14.40;6.50;;;17.90;57.70;;;;;;4967877;28;20193;-80
2022/04/15 07:18:12;;;;;;;14.17;6.07;;;18.00;57.00;;;;;;4967053;28;20228;-81
2022/04/15 07:20:42;;;;;;;16.33;5.33;;;18.10;57.20;;;;;;4968210;28;20316;-80
2022/04/15 07:23:10;;;;;;;16.67;5.50;;;18.10;56.50;;;;;;4969410;28;20202;-80
2022/04/15 07:25:38;;;;;;;15.07;4.20;;;18.20;55.90;;;;;;4967456;28;20229;-78
2022/04/15 07:28:08;;;;;;;12.50;5.00;;;18.30;55.50;;;;;;4967171;28;20651;-81
2022/04/15 07:30:40;;;;;;;15.50;5.77;;;18.40;55.50;;;;;;4966064;28;20232;-83
2022/04/15 07:33:08;;;;;;;17.13;6.17;;;18.40;54.60;;;;;;4966316;28;20211;-85
2022/04/15 07:35:38;;;;;;;17.87;6.53;;;18.50;55.00;;;;;;4965750;28;20547;-82
2022/04/15 07:38:07;;;;;;;18.67;6.70;;;18.60;54.90;;;;;;4965905;28;20208;-82
2022/04/15 07:40:35;;;;;;;12.73;6.17;;;18.70;54.90;;;;;;4967189;28;20205;-80
2022/04/15 07:43:04;;;;;;;13.90;5.47;;;18.80;55.50;;;;;;4966018;28;20198;-81
2022/04/15 07:45:33;;;;;;;13.50;6.23;;;18.90;55.20;;;;;;4965593;28;20240;-81
2022/04/15 07:48:05;;;;;;;15.00;5.30;;;19.00;54.70;;;;;;4964503;28;20201;-82
2022/04/15 07:50:35;;;;;;;15.17;5.60;;;19.10;53.60;;;;;;4967051;28;20188;-84
2022/04/15 07:53:05;;;;;;;18.73;5.97;;;19.20;54.00;;;;;;4966487;28;20280;-82
2022/04/15 07:55:34;;;;;;;12.93;5.50;;;19.30;54.30;;;;;;4964678;28;20201;-85
2022/04/15 07:58:03;;;;;;;11.83;5.30;;;19.40;53.80;;;;;;4964922;28;20236;-82
2022/04/15 08:00:34;;;;;;;19.33;6.07;;;19.50;53.50;;;;;;4965682;28;20202;-82
2022/04/15 08:03:05;;;;;;;7.03;3.73;;;19.50;53.50;;;;;;4966357;28;20193;-83
2022/04/15 08:05:33;;;;;;;12.77;3.73;;;19.60;52.50;;;;;;4964806;28;20880;-83
2022/04/15 08:08:02;;;;;;;11.27;5.17;;;19.70;52.50;;;;;;4965325;28;20232;-84
2022/04/15 08:10:32;;;;;;;12.50;5.23;;;19.70;51.90;;;;;;4964729;28;21749;-81
2022/04/15 08:13:02;;;;;;;12.57;4.10;;;19.80;52.20;;;;;;4966242;28;20231;-83
2022/04/15 08:15:31;;;;;;;11.67;5.80;;;19.80;50.50;;;;;;4965649;28;20197;-80
2022/04/15 08:18:00;;;;;;;15.13;6.50;;;19.90;51.10;;;;;;4964583;28;20201;-83
2022/04/15 08:20:29;;;;;;;17.73;7.07;;;20.00;51.80;;;;;;4965788;28;20410;-83
2022/04/15 08:22:58;;;;;;;16.67;7.27;;;20.00;51.90;;;;;;4965901;28;20209;-78
2022/04/15 08:25:26;;;;;;;8.80;5.20;;;20.10;52.10;;;;;;4966322;28;20252;-81
2022/04/15 08:27:56;;;;;;;7.97;4.30;;;20.20;51.40;;;;;;4966874;28;20208;-81
2022/04/15 08:30:25;;;;;;;8.70;4.30;;;20.20;50.50;;;;;;4965377;28;20233;-80
2022/04/15 08:32:54;;;;;;;7.33;3.80;;;20.30;50.90;;;;;;4965603;28;20213;-79
2022/04/15 08:35:23;;;;;;;6.70;3.40;;;20.40;49.20;;;;;;4965995;28;20562;-79
2022/04/15 08:37:51;;;;;;;10.67;4.30;;;20.40;48.30;;;;;;4964159;28;20686;-79
2022/04/15 08:40:20;;;;;;;7.20;3.97;;;20.50;48.40;;;;;;4965121;28;20209;-78
2022/04/15 08:42:48;;;;;;;10.13;4.07;;;20.50;48.20;;;;;;4966344;28;20209;-80
2022/04/15 08:45:22;;;;;;;9.43;3.87;;;20.60;48.50;;;;;;4965144;28;20557;-83
2022/04/15 08:47:50;;;;;;;6.03;3.50;;;20.70;48.80;;;;;;4965639;28;20193;-79
2022/04/15 08:50:19;;;;;;;8.83;4.03;;;20.70;46.20;;;;;;4967503;28;20201;-77
2022/04/15 08:52:54;;;;;;;9.57;4.07;;;20.70;46.80;;;;;;4967494;28;20197;-79
2022/04/15 08:55:24;;;;;;;15.77;4.57;;;20.80;47.40;;;;;;4970412;28;20208;-79
2022/04/15 08:57:53;;;;;;;9.23;3.67;;;20.90;46.80;;;;;;4969819;28;20207;-85
2022/04/15 09:00:29;;;;;;;10.17;4.63;;;21.00;47.70;;;;;;4968749;28;20280;-79
2022/04/15 09:02:57;;;;;;;7.67;3.80;;;21.00;46.80;;;;;;4967961;28;20207;-80
2022/04/15 09:05:28;;;;;;;12.53;4.07;;;21.10;47.00;;;;;;4969492;28;20886;-80
2022/04/15 09:08:04;;;;;;;8.95;4.25;;;21.10;45.00;;;;;;4969983;28;20205;-85
2022/04/15 09:10:34;;;;;;;7.80;3.83;;;21.20;45.40;;;;;;4975625;28;20232;-81
2022/04/15 09:13:04;;;;;;;6.93;3.50;;;21.20;45.30;;;;;;4979815;28;20194;-79
2022/04/15 09:15:37;;;;;;;9.90;3.10;;;21.30;45.30;;;;;;4977603;28;20253;-79
2022/04/15 09:18:06;;;;;;;8.02;3.10;;;21.30;45.30;;;;;;4972381;28;20524;-79
2022/04/15 09:20:35;;;;;;;9.65;3.40;;;21.40;45.00;;;;;;4970365;28;21038;-80
2022/04/15 09:23:10;;;;;;;5.95;3.08;;;21.50;43.80;;;;;;4971691;28;20198;-79
2022/04/15 09:25:39;;;;;;;5.75;2.83;;;21.60;44.00;;;;;;4969654;28;20639;-81
2022/04/15 09:28:08;;;;;;;7.10;3.75;;;21.70;44.40;;;;;;4969919;28;20754;-82
2022/04/15 09:30:45;;;;;;;7.85;3.58;;;21.70;44.00;;;;;;4969283;28;20762;-81
2022/04/15 09:33:17;;;;;;;6.75;3.72;;;21.70;43.20;;;;;;4969573;28;20197;-81
2022/04/15 09:35:46;;;;;;;10.82;3.97;;;21.90;43.60;;;;;;4969204;28;20224;-83
2022/04/15 09:38:15;;;;;;;6.25;3.30;;;21.90;43.80;;;;;;4967859;28;20204;-81
2022/04/15 09:40:43;;;;;;;6.32;3.72;;;22.00;43.80;;;;;;4967753;28;20198;-82
2022/04/15 09:43:12;;;;;;;7.90;4.43;;;22.10;43.90;;;;;;4966883;28;20233;-80
2022/04/15 09:45:40;;;;;;;9.23;4.15;;;22.20;44.30;;;;;;4967987;28;20205;-79
2022/04/15 09:48:11;;;;;;;6.85;4.40;;;22.30;43.90;;;;;;4966862;28;20211;-81
2022/04/15 09:50:45;;;;;;;8.25;4.28;;;22.30;43.50;;;;;;4969478;28;20213;-82
2022/04/15 09:53:15;;;;;;;8.35;4.40;;;22.40;44.20;;;;;;4967878;28;20220;-82
2022/04/15 09:55:46;;;;;;;7.78;4.10;;;22.50;44.40;;;;;;4967170;28;20205;-79
2022/04/15 09:58:16;;;;;;;8.95;4.30;;;22.50;44.10;;;;;;4969025;28;20205;-81
2022/04/15 10:00:48;;;;;;;8.45;4.93;;;22.70;44.20;;;;;;4969001;28;20660;-81
2022/04/15 10:03:20;;;;;;;11.00;5.13;;;22.70;43.80;;;;;;4963963;28;20201;-77
2022/04/15 10:05:50;;;;;;;8.27;4.72;;;22.70;44.40;;;;;;4967949;28;20205;-79
2022/04/15 10:08:21;;;;;;;8.95;5.88;;;22.70;44.80;;;;;;4967614;28;20767;-79
2022/04/15 10:10:51;;;;;;;13.68;5.25;;;22.80;44.50;;;;;;4966923;28;20694;-77
2022/04/15 10:13:22;;;;;;;11.00;4.90;;;22.80;44.50;;;;;;4967141;28;20584;-79
2022/04/15 10:15:52;;;;;;;9.57;5.15;;;22.90;44.70;;;;;;4967687;28;20214;-81
2022/04/15 10:18:23;;;;;;;10.13;5.32;;;22.90;44.90;;;;;;4966835;28;20263;-79
2022/04/15 10:20:51;;;;;;;10.70;4.63;;;23.00;45.50;;;;;;4969372;28;20651;-79
2022/04/15 10:23:22;;;;;;;9.43;4.93;;;23.10;45.20;;;;;;4966399;28;20208;-80
2022/04/15 10:25:52;;;;;;;8.45;4.60;;;23.20;45.20;;;;;;4966688;28;20689;-79
2022/04/15 10:28:38;;;;;;;11.05;4.40;;;23.30;44.90;;;;;;4966577;28;20240;-79
2022/04/15 10:31:08;;;;;;;8.05;4.57;;;23.30;45.00;;;;;;4966097;28;20621;-79
2022/04/15 10:33:40;;;;;;;9.32;4.80;;;23.30;44.60;;;;;;4967752;28;20229;-81
2022/04/15 10:36:14;;;;;;;13.02;4.38;;;23.40;44.00;;;;;;4967362;28;20226;-78
2022/04/15 10:39:14;;;;;;;11.60;3.78;;;23.40;44.30;;;;;;4968021;28;20204;-80
2022/04/15 10:41:52;;;;;;;8.05;4.68;;;23.40;44.10;;;;;;4966395;28;20316;-82
2022/04/15 10:44:31;;;;;;;7.95;3.75;;;23.40;44.10;;;;;;4967082;28;20638;-79
2022/04/15 10:47:04;;;;;;;8.52;4.47;;;23.40;43.70;;;;;;4968273;28;20200;-79
2022/04/15 10:49:35;;;;;;;8.55;3.78;;;23.50;43.60;;;;;;4966863;28;20670;-79
2022/04/15 10:52:17;;;;;;;8.55;4.15;;;23.60;43.80;;;;;;4969050;28;20197;-80
2022/04/15 10:54:48;;;;;;;10.35;4.88;;;23.60;43.00;;;;;;4967216;28;20204;-79
2022/04/15 10:57:18;;;;;;;10.73;4.07;;;23.70;43.40;;;;;;4965138;28;20228;-80
2022/04/15 11:02:41;;;;;;;8.95;3.85;;;23.90;43.80;;;;;;4967477;28;20201;-81
2022/04/15 11:05:15;;;;;;;5.88;3.22;;;24.00;43.80;;;;;;4965481;28;20201;-80
2022/04/15 11:07:51;;;;;;;10.07;3.70;;;24.10;43.50;;;;;;4965284;28;20216;-79
2022/04/15 11:10:46;;;;;;;6.15;3.55;;;24.20;44.20;;;;;;4965026;28;20216;-77
2022/04/15 11:13:32;;;;;;;10.90;4.50;;;24.40;43.20;;;;;;4966397;28;20200;-79
2022/04/15 11:16:10;;;;;;;7.78;3.50;;;24.40;42.70;;;;;;4965493;28;20678;-81
2022/04/15 11:18:50;;;;;;;7.50;4.15;;;24.50;42.60;;;;;;4966804;28;20190;-78
2022/04/15 11:21:29;;;;;;;7.78;3.45;;;24.60;42.70;;;;;;4968311;28;20689;-76
2022/04/15 11:24:00;;;;;;;8.68;3.83;;;24.70;42.10;;;;;;4970416;28;20784;-77
2022/04/15 11:26:31;;;;;;;7.22;3.15;;;24.60;41.50;;;;;;4968370;28;20901;-80
2022/04/15 11:29:01;;;;;;;7.35;3.88;;;24.70;41.90;;;;;;4969190;28;20229;-76
2022/04/15 11:31:31;;;;;;;7.88;4.20;;;24.70;42.30;;;;;;4967549;28;20205;-76
2022/04/15 11:34:05;;;;;;;9.05;4.47;;;24.60;42.20;;;;;;4967326;28;20232;-75
2022/04/15 11:36:35;;;;;;;16.05;5.18;;;24.60;42.60;;;;;;4966487;28;20202;-75
2022/04/15 11:39:06;;;;;;;10.27;4.80;;;24.60;43.00;;;;;;4965147;28;20197;-78
2022/04/15 11:41:36;;;;;;;8.63;3.22;;;24.60;43.20;;;;;;4967247;28;20202;-76
2022/04/15 11:44:06;;;;;;;7.85;4.22;;;24.60;43.30;;;;;;4964520;28;21371;-76
2022/04/15 11:46:46;;;;;;;8.40;4.07;;;24.70;42.80;;;;;;4966422;28;20220;-74
2022/04/15 11:49:16;;;;;;;8.65;4.07;;;24.70;42.30;;;;;;4965999;28;20642;-76
2022/04/15 11:51:46;;;;;;;5.95;3.80;;;24.80;42.40;;;;;;4964822;28;20283;-77
2022/04/15 11:54:14;;;;;;;9.88;3.50;;;24.80;42.20;;;;;;4966118;28;20193;-76
2022/04/15 11:56:45;;;;;;;9.88;3.78;;;24.80;41.80;;;;;;4965764;28;20204;-77
2022/04/15 11:59:17;;;;;;;6.40;3.30;;;24.80;41.70;;;;;;4965367;28;20212;-77
2022/04/15 12:01:46;;;;;;;6.45;3.58;;;24.90;41.90;;;;;;4967374;28;20883;-75
2022/04/15 12:04:14;;;;;;;7.85;3.72;;;24.90;42.10;;;;;;4965625;28;20210;-75
2022/04/15 12:06:42;;;;;;;7.30;2.83;;;24.90;41.50;;;;;;4964952;28;20201;-75
2022/04/15 12:09:12;;;;;;;8.60;3.45;;;25.00;41.50;;;;;;4964966;28;20224;-77
2022/04/15 12:12:02;;;;;;;7.90;3.10;;;25.00;41.50;;;;;;4965683;28;20197;-76
2022/04/15 12:14:37;;;;;;;5.88;3.38;;;25.00;40.90;;;;;;4963975;28;20739;-76
2022/04/15 12:17:08;;;;;;;3.67;2.25;;;25.00;40.40;;;;;;4964294;28;20201;-76
2022/04/15 12:19:37;;;;;;;6.38;2.92;;;25.10;40.50;;;;;;4964379;28;20686;-77
2022/04/15 12:22:08;;;;;;;4.45;2.50;;;25.10;41.20;;;;;;4967072;28;20205;-76
2022/04/15 12:24:36;;;;;;;4.68;2.22;;;25.20;41.30;;;;;;4965323;28;20217;-75
2022/04/15 12:27:06;;;;;;;4.88;2.65;;;25.30;41.30;;;;;;4964932;28;20206;-77
2022/04/15 12:29:51;;;;;;;5.97;2.97;;;25.30;40.80;;;;;;4968017;28;20238;-77
2022/04/15 12:32:24;;;;;;;4.68;2.00;;;25.30;40.00;;;;;;4966300;28;20229;-79
2022/04/15 12:35:10;;;;;;;9.30;2.75;;;25.40;40.30;;;;;;4965659;28;20996;-76
2022/04/15 12:37:42;;;;;;;5.35;3.08;;;25.40;39.90;;;;;;4963607;28;20197;-77
2022/04/15 12:40:29;;;;;;;9.60;3.40;;;25.40;39.50;;;;;;4963980;28;20213;-76
2022/04/15 12:43:11;;;;;;;8.02;2.78;;;25.40;40.00;;;;;;4966420;28;20208;-78
2022/04/15 12:45:53;;;;;;;5.22;2.80;;;25.50;40.00;;;;;;4964302;28;20193;-76
2022/04/15 12:48:22;;;;;;;5.32;2.35;;;25.50;39.30;;;;;;4965291;28;20220;-78
2022/04/15 12:50:58;;;;;;;7.63;2.78;;;25.50;39.60;;;;;;4967296;28;20215;-78
2022/04/15 12:53:37;;;;;;;4.55;2.45;;;25.50;39.20;;;;;;4967539;28;20197;-80
2022/04/15 12:56:14;;;;;;;4.68;2.20;;;25.50;38.90;;;;;;4966281;28;20813;-83